sensor_id;sensor_type;location;lat;lon;timestamp;pressure;altitude;pressure_sealevel;temperature;humidity
64340;BME280;63709;53.258;-8.814;2023-03-04T00:00:27;103466.75;;;10.41;100.00
64340;BME280;63709;53.258;-8.814;2023-03-04T00:02:52;103468.44;;;10.46;100.00
64340;BME280;63709;53.258;-8.814;2023-03-04T00:05:17;103467.59;;;10.44;100.00
64340;BME280;63709;53.258;-8.814;2023-03-04T00:07:43;103467.50;;;10.47;100.00
64340;BME280;63709;53.258;-8.814;2023-03-04T00:10:08;103466.63;;;10.46;100.00
64340;BME280;63709;53.258;-8.814;2023-03-04T00:12:35;103467.34;;;10.51;100.00
64340;BME280;63709;53.258;-8.814;2023-03-04T00:15:00;103464.00;;;10.45;100.00
64340;BME280;63709;53.258;-8.814;2023-03-04T00:17:25;103465.78;;;10.46;100.00
64340;BME280;63709;53.258;-8.814;2023-03-04T00:19:50;103473.34;;;10.31;100.00
64340;BME280;63709;53.258;-8.814;2023-03-04T00:22:16;103474.22;;;10.30;100.00
64340;BME280;63709;53.258;-8.814;2023-03-04T00:24:41;103471.72;;;10.26;100.00
64340;BME280;63709;53.258;-8.814;2023-03-04T00:27:06;103474.22;;;10.30;100.00
64340;BME280;63709;53.258;-8.814;2023-03-04T00:29:31;103467.84;;;10.36;100.00
64340;BME280;63709;53.258;-8.814;2023-03-04T00:31:57;103467.13;;;10.31;100.00
64340;BME280;63709;53.258;-8.814;2023-03-04T00:34:22;103465.34;;;10.30;100.00
64340;BME280;63709;53.258;-8.814;2023-03-04T00:36:47;103471.69;;;10.27;100.00
64340;BME280;63709;53.258;-8.814;2023-03-04T00:39:13;103469.81;;;10.29;100.00
64340;BME280;63709;53.258;-8.814;2023-03-04T00:41:38;103473.19;;;10.36;100.00
64340;BME280;63709;53.258;-8.814;2023-03-04T00:44:04;103467.69;;;10.40;100.00
64340;BME280;63709;53.258;-8.814;2023-03-04T00:46:29;103468.66;;;10.38;100.00
64340;BME280;63709;53.258;-8.814;2023-03-04T00:48:55;103472.41;;;10.32;100.00
64340;BME280;63709;53.258;-8.814;2023-03-04T00:51:20;103467.00;;;10.34;100.00
64340;BME280;63709;53.258;-8.814;2023-03-04T00:53:45;103466.19;;;10.32;100.00
64340;BME280;63709;53.258;-8.814;2023-03-04T00:56:11;103469.88;;;10.28;100.00
64340;BME280;63709;53.258;-8.814;2023-03-04T00:58:37;103470.09;;;10.20;100.00
64340;BME280;63709;53.258;-8.814;2023-03-04T01:01:03;103475.13;;;10.31;100.00
64340;BME280;63709;53.258;-8.814;2023-03-04T01:03:28;103471.47;;;10.33;100.00
64340;BME280;63709;53.258;-8.814;2023-03-04T01:05:56;103472.78;;;10.18;100.00
64340;BME280;63709;53.258;-8.814;2023-03-04T01:08:22;103471.84;;;10.21;100.00
64340;BME280;63709;53.258;-8.814;2023-03-04T01:10:47;103476.81;;;10.33;100.00
64340;BME280;63709;53.258;-8.814;2023-03-04T01:13:12;103475.06;;;10.32;100.00
64340;BME280;63709;53.258;-8.814;2023-03-04T01:15:38;103478.34;;;10.42;100.00
64340;BME280;63709;53.258;-8.814;2023-03-04T01:18:03;103481.88;;;10.43;100.00
64340;BME280;63709;53.258;-8.814;2023-03-04T01:20:28;103485.56;;;10.38;100.00
64340;BME280;63709;53.258;-8.814;2023-03-04T01:22:53;103480.31;;;10.35;100.00
64340;BME280;63709;53.258;-8.814;2023-03-04T01:25:19;103483.28;;;10.25;100.00
64340;BME280;63709;53.258;-8.814;2023-03-04T01:27:44;103483.25;;;10.28;100.00
64340;BME280;63709;53.258;-8.814;2023-03-04T01:30:09;103481.56;;;10.24;100.00
64340;BME280;63709;53.258;-8.814;2023-03-04T01:32:35;103482.41;;;10.26;100.00
64340;BME280;63709;53.258;-8.814;2023-03-04T01:35:00;103478.13;;;10.18;100.00
64340;BME280;63709;53.258;-8.814;2023-03-04T01:37:25;103476.03;;;10.30;100.00
64340;BME280;63709;53.258;-8.814;2023-03-04T01:39:51;103475.22;;;10.28;100.00
64340;BME280;63709;53.258;-8.814;2023-03-04T01:42:20;103483.16;;;10.31;100.00
64340;BME280;63709;53.258;-8.814;2023-03-04T01:44:47;103476.66;;;10.38;100.00
64340;BME280;63709;53.258;-8.814;2023-03-04T01:47:13;103485.75;;;10.32;100.00
64340;BME280;63709;53.258;-8.814;2023-03-04T01:49:38;103486.47;;;10.37;100.00
64340;BME280;63709;53.258;-8.814;2023-03-04T01:52:04;103479.72;;;10.26;100.00
64340;BME280;63709;53.258;-8.814;2023-03-04T01:54:30;103480.50;;;10.29;100.00
64340;BME280;63709;53.258;-8.814;2023-03-04T01:56:56;103474.44;;;10.23;100.00
64340;BME280;63709;53.258;-8.814;2023-03-04T01:59:24;103475.22;;;10.28;100.00
64340;BME280;63709;53.258;-8.814;2023-03-04T02:01:55;103484.22;;;10.24;100.00
64340;BME280;63709;53.258;-8.814;2023-03-04T02:04:24;103479.84;;;10.21;100.00
64340;BME280;63709;53.258;-8.814;2023-03-04T02:06:50;103475.31;;;10.23;100.00
64340;BME280;63709;53.258;-8.814;2023-03-04T02:09:16;103487.69;;;10.27;100.00
64340;BME280;63709;53.258;-8.814;2023-03-04T02:11:42;103482.25;;;10.30;100.00
64340;BME280;63709;53.258;-8.814;2023-03-04T02:14:08;103479.69;;;10.27;100.00
64340;BME280;63709;53.258;-8.814;2023-03-04T02:16:35;103481.53;;;10.25;100.00
64340;BME280;63709;53.258;-8.814;2023-03-04T02:19:00;103478.88;;;10.24;100.00
64340;BME280;63709;53.258;-8.814;2023-03-04T02:21:26;103483.38;;;10.22;100.00
64340;BME280;63709;53.258;-8.814;2023-03-04T02:24:08;103479.00;;;10.19;100.00
64340;BME280;63709;53.258;-8.814;2023-03-04T02:26:36;103477.06;;;10.26;100.00
64340;BME280;63709;53.258;-8.814;2023-03-04T02:29:05;103467.44;;;10.18;100.00
64340;BME280;63709;53.258;-8.814;2023-03-04T02:31:34;103468.28;;;10.21;100.00
64340;BME280;63709;53.258;-8.814;2023-03-04T02:34:01;103465.53;;;10.24;100.00
64340;BME280;63709;53.258;-8.814;2023-03-04T02:36:27;103460.63;;;10.08;100.00
64340;BME280;63709;53.258;-8.814;2023-03-04T02:38:53;103467.00;;;10.04;100.00
64340;BME280;63709;53.258;-8.814;2023-03-04T02:41:20;103464.94;;;10.14;100.00
64340;BME280;63709;53.258;-8.814;2023-03-04T02:43:46;103454.53;;;10.05;100.00
64340;BME280;63709;53.258;-8.814;2023-03-04T02:46:13;103465.00;;;10.12;100.00
64340;BME280;63709;53.258;-8.814;2023-03-04T02:48:38;103463.22;;;10.11;100.00
64340;BME280;63709;53.258;-8.814;2023-03-04T02:51:04;103472.00;;;10.15;100.00
64340;BME280;63709;53.258;-8.814;2023-03-04T02:53:29;103465.66;;;10.19;100.00
64340;BME280;63709;53.258;-8.814;2023-03-04T02:55:54;103469.44;;;10.12;100.00
64340;BME280;63709;53.258;-8.814;2023-03-04T02:58:19;103458.72;;;10.13;100.00
64340;BME280;63709;53.258;-8.814;2023-03-04T03:00:45;103458.56;;;10.18;100.00
64340;BME280;63709;53.258;-8.814;2023-03-04T03:03:10;103460.44;;;10.16;100.00
64340;BME280;63709;53.258;-8.814;2023-03-04T03:05:35;103459.50;;;10.17;100.00
64340;BME280;63709;53.258;-8.814;2023-03-04T03:08:01;103456.97;;;10.12;100.00
64340;BME280;63709;53.258;-8.814;2023-03-04T03:10:26;103456.69;;;10.22;100.00
64340;BME280;63709;53.258;-8.814;2023-03-04T03:12:52;103454.34;;;10.11;100.00
64340;BME280;63709;53.258;-8.814;2023-03-04T03:15:18;103454.41;;;10.09;100.00
64340;BME280;63709;53.258;-8.814;2023-03-04T03:17:43;103454.16;;;10.17;100.00
64340;BME280;63709;53.258;-8.814;2023-03-04T03:20:09;103449.00;;;10.11;100.00
64340;BME280;63709;53.258;-8.814;2023-03-04T03:22:35;103453.25;;;10.18;100.00
64340;BME280;63709;53.258;-8.814;2023-03-04T03:25:00;103456.00;;;10.15;100.00
64340;BME280;63709;53.258;-8.814;2023-03-04T03:27:26;103457.31;;;10.02;100.00
64340;BME280;63709;53.258;-8.814;2023-03-04T03:29:51;103453.66;;;10.04;100.00
64340;BME280;63709;53.258;-8.814;2023-03-04T03:32:23;103459.13;;;10.00;100.00
64340;BME280;63709;53.258;-8.814;2023-03-04T03:34:48;103452.69;;;10.07;100.00
64340;BME280;63709;53.258;-8.814;2023-03-04T03:37:13;103452.75;;;10.05;100.00
64340;BME280;63709;53.258;-8.814;2023-03-04T03:39:39;103456.22;;;10.07;100.00
64340;BME280;63709;53.258;-8.814;2023-03-04T03:42:04;103455.81;;;9.91;100.00
64340;BME280;63709;53.258;-8.814;2023-03-04T03:44:29;103442.16;;;10.02;100.00
64340;BME280;63709;53.258;-8.814;2023-03-04T03:46:56;103439.66;;;9.98;100.00
64340;BME280;63709;53.258;-8.814;2023-03-04T03:49:21;103446.88;;;9.94;100.00
64340;BME280;63709;53.258;-8.814;2023-03-04T03:51:46;103440.63;;;9.93;100.00
64340;BME280;63709;53.258;-8.814;2023-03-04T03:54:11;103449.47;;;9.96;100.00
64340;BME280;63709;53.258;-8.814;2023-03-04T03:56:37;103445.97;;;9.93;100.00
64340;BME280;63709;53.258;-8.814;2023-03-04T03:59:02;103447.09;;;9.86;100.00
64340;BME280;63709;53.258;-8.814;2023-03-04T04:01:27;103449.06;;;9.80;100.00
64340;BME280;63709;53.258;-8.814;2023-03-04T04:03:53;103444.50;;;9.83;100.00
64340;BME280;63709;53.258;-8.814;2023-03-04T04:06:18;103443.84;;;9.75;100.00
64340;BME280;63709;53.258;-8.814;2023-03-04T04:08:43;103455.13;;;9.85;100.00
64340;BME280;63709;53.258;-8.814;2023-03-04T04:11:09;103444.22;;;9.92;100.00
64340;BME280;63709;53.258;-8.814;2023-03-04T04:13:35;103443.34;;;9.92;100.00
64340;BME280;63709;53.258;-8.814;2023-03-04T04:16:00;103447.72;;;9.94;100.00
64340;BME280;63709;53.258;-8.814;2023-03-04T04:18:25;103445.09;;;9.93;100.00
64340;BME280;63709;53.258;-8.814;2023-03-04T04:20:51;103443.44;;;9.89;100.00
64340;BME280;63709;53.258;-8.814;2023-03-04T04:23:16;103441.47;;;9.96;100.00
64340;BME280;63709;53.258;-8.814;2023-03-04T04:25:41;103440.59;;;9.95;100.00
64340;BME280;63709;53.258;-8.814;2023-03-04T04:28:08;103446.88;;;9.92;100.00
64340;BME280;63709;53.258;-8.814;2023-03-04T04:30:33;103443.97;;;10.02;100.00
64340;BME280;63709;53.258;-8.814;2023-03-04T04:32:58;103445.09;;;9.93;100.00
64340;BME280;63709;53.258;-8.814;2023-03-04T04:35:26;103438.66;;;10.00;100.00
64340;BME280;63709;53.258;-8.814;2023-03-04T04:37:52;103442.34;;;9.96;100.00
64340;BME280;63709;53.258;-8.814;2023-03-04T04:40:17;103445.25;;;9.88;100.00
64340;BME280;63709;53.258;-8.814;2023-03-04T04:42:43;103441.38;;;9.99;100.00
64340;BME280;63709;53.258;-8.814;2023-03-04T04:45:08;103453.88;;;9.97;100.00
64340;BME280;63709;53.258;-8.814;2023-03-04T04:47:33;103446.75;;;9.97;100.00
64340;BME280;63709;53.258;-8.814;2023-03-04T04:49:59;103446.81;;;9.96;100.00
64340;BME280;63709;53.258;-8.814;2023-03-04T04:52:24;103436.78;;;10.04;100.00
64340;BME280;63709;53.258;-8.814;2023-03-04T04:54:49;103444.06;;;9.97;100.00
64340;BME280;63709;53.258;-8.814;2023-03-04T04:57:15;103448.91;;;9.84;100.00
64340;BME280;63709;53.258;-8.814;2023-03-04T04:59:40;103455.03;;;9.88;100.00
64340;BME280;63709;53.258;-8.814;2023-03-04T05:02:05;103448.00;;;9.85;100.00
64340;BME280;63709;53.258;-8.814;2023-03-04T05:04:30;103444.31;;;9.89;100.00
64340;BME280;63709;53.258;-8.814;2023-03-04T05:06:56;103456.88;;;9.86;100.00
64340;BME280;63709;53.258;-8.814;2023-03-04T05:09:21;103446.19;;;9.86;100.00
64340;BME280;63709;53.258;-8.814;2023-03-04T05:11:47;103445.38;;;9.84;100.00
64340;BME280;63709;53.258;-8.814;2023-03-04T05:14:12;103444.50;;;9.83;100.00
64340;BME280;63709;53.258;-8.814;2023-03-04T05:16:38;103433.00;;;9.81;100.00
64340;BME280;63709;53.258;-8.814;2023-03-04T05:19:03;103433.88;;;9.82;100.00
64340;BME280;63709;53.258;-8.814;2023-03-04T05:21:28;103433.75;;;9.86;100.00
64340;BME280;63709;53.258;-8.814;2023-03-04T05:23:53;103434.75;;;9.82;100.00
64340;BME280;63709;53.258;-8.814;2023-03-04T05:26:19;103435.34;;;9.92;100.00
64340;BME280;63709;53.258;-8.814;2023-03-04T05:28:44;103431.13;;;9.85;100.00
64340;BME280;63709;53.258;-8.814;2023-03-04T05:31:10;103433.63;;;9.89;100.00
64340;BME280;63709;53.258;-8.814;2023-03-04T05:33:35;103441.84;;;9.83;100.00
64340;BME280;63709;53.258;-8.814;2023-03-04T05:36:03;103443.75;;;9.78;100.00
64340;BME280;63709;53.258;-8.814;2023-03-04T05:38:28;103434.16;;;9.73;100.00
64340;BME280;63709;53.258;-8.814;2023-03-04T05:40:57;103444.75;;;9.74;100.00
64340;BME280;63709;53.258;-8.814;2023-03-04T05:43:23;103450.03;;;9.77;100.00
64340;BME280;63709;53.258;-8.814;2023-03-04T05:45:49;103451.81;;;9.77;100.00
64340;BME280;63709;53.258;-8.814;2023-03-04T05:48:15;103443.66;;;9.83;100.00
64340;BME280;63709;53.258;-8.814;2023-03-04T05:50:40;103439.28;;;9.79;100.00
64340;BME280;63709;53.258;-8.814;2023-03-04T05:53:05;103445.69;;;9.73;100.00
64340;BME280;63709;53.258;-8.814;2023-03-04T05:55:31;103441.16;;;9.75;100.00
64340;BME280;63709;53.258;-8.814;2023-03-04T05:57:56;103440.13;;;9.81;100.00
64340;BME280;63709;53.258;-8.814;2023-03-04T06:00:22;103443.72;;;9.80;100.00
64340;BME280;63709;53.258;-8.814;2023-03-04T06:02:47;103434.28;;;9.68;100.00
64340;BME280;63709;53.258;-8.814;2023-03-04T06:05:14;103436.63;;;9.79;100.00
64340;BME280;63709;53.258;-8.814;2023-03-04T06:07:40;103436.69;;;9.77;100.00
64340;BME280;63709;53.258;-8.814;2023-03-04T06:10:07;103437.53;;;9.79;100.00
64340;BME280;63709;53.258;-8.814;2023-03-04T06:12:33;103433.38;;;9.69;100.00
64340;BME280;63709;53.258;-8.814;2023-03-04T06:14:58;103435.94;;;9.72;100.00
64340;BME280;63709;53.258;-8.814;2023-03-04T06:17:23;103439.44;;;9.74;100.00
64340;BME280;63709;53.258;-8.814;2023-03-04T06:19:48;103435.75;;;9.78;100.00
64340;BME280;63709;53.258;-8.814;2023-03-04T06:22:14;103439.50;;;9.73;100.00
64340;BME280;63709;53.258;-8.814;2023-03-04T06:24:39;103438.69;;;9.69;100.00
64340;BME280;63709;53.258;-8.814;2023-03-04T06:27:04;103432.53;;;9.67;100.00
64340;BME280;63709;53.258;-8.814;2023-03-04T06:29:29;103434.19;;;9.71;100.00
64340;BME280;63709;53.258;-8.814;2023-03-04T06:31:55;103430.28;;;9.53;100.00
64340;BME280;63709;53.258;-8.814;2023-03-04T06:34:20;103429.91;;;9.65;100.00
64340;BME280;63709;53.258;-8.814;2023-03-04T06:36:45;103436.28;;;9.60;100.00
64340;BME280;63709;53.258;-8.814;2023-03-04T06:39:11;103436.19;;;9.63;100.00
64340;BME280;63709;53.258;-8.814;2023-03-04T06:41:36;103438.69;;;9.69;100.00
64340;BME280;63709;53.258;-8.814;2023-03-04T06:44:01;103438.94;;;9.61;100.00
64340;BME280;63709;53.258;-8.814;2023-03-04T06:46:26;103444.19;;;9.64;100.00
64340;BME280;63709;53.258;-8.814;2023-03-04T06:48:52;103442.47;;;9.62;100.00
64340;BME280;63709;53.258;-8.814;2023-03-04T06:51:17;103454.00;;;9.62;100.00
64340;BME280;63709;53.258;-8.814;2023-03-04T06:53:42;103452.19;;;9.63;100.00
64340;BME280;63709;53.258;-8.814;2023-03-04T06:56:08;103454.06;;;9.61;100.00
64340;BME280;63709;53.258;-8.814;2023-03-04T06:58:35;103453.06;;;9.63;100.00
64340;BME280;63709;53.258;-8.814;2023-03-04T07:03:34;103443.19;;;9.67;100.00
64340;BME280;63709;53.258;-8.814;2023-03-04T07:06:00;103450.31;;;9.68;100.00
64340;BME280;63709;53.258;-8.814;2023-03-04T07:08:25;103445.06;;;9.63;100.00
64340;BME280;63709;53.258;-8.814;2023-03-04T07:10:50;103449.41;;;9.67;100.00
64340;BME280;63709;53.258;-8.814;2023-03-04T07:13:15;103451.34;;;9.62;100.00
64340;BME280;63709;53.258;-8.814;2023-03-04T07:15:41;103451.19;;;9.67;100.00
64340;BME280;63709;53.258;-8.814;2023-03-04T07:18:06;103454.06;;;9.61;100.00
64340;BME280;63709;53.258;-8.814;2023-03-04T07:20:31;103454.13;;;9.58;100.00
64340;BME280;63709;53.258;-8.814;2023-03-04T07:22:56;103461.13;;;9.62;100.00
64340;BME280;63709;53.258;-8.814;2023-03-04T07:25:23;103458.84;;;9.48;100.00
64340;BME280;63709;53.258;-8.814;2023-03-04T07:27:48;103472.09;;;9.51;100.00
64340;BME280;63709;53.258;-8.814;2023-03-04T07:30:13;103470.38;;;9.49;100.00
64340;BME280;63709;53.258;-8.814;2023-03-04T07:32:41;103464.88;;;9.55;100.00
64340;BME280;63709;53.258;-8.814;2023-03-04T07:35:06;103466.81;;;9.50;100.00
64340;BME280;63709;53.258;-8.814;2023-03-04T07:37:31;103465.69;;;9.58;100.00
64340;BME280;63709;53.258;-8.814;2023-03-04T07:39:57;103462.16;;;9.56;100.00
64340;BME280;63709;53.258;-8.814;2023-03-04T07:42:22;103456.88;;;9.55;100.00
64340;BME280;63709;53.258;-8.814;2023-03-04T07:44:47;103463.78;;;9.62;100.00
64340;BME280;63709;53.258;-8.814;2023-03-04T07:47:12;103460.56;;;9.51;100.00
64340;BME280;63709;53.258;-8.814;2023-03-04T07:49:38;103463.31;;;9.48;100.00
64340;BME280;63709;53.258;-8.814;2023-03-04T07:52:03;103456.84;;;9.56;100.00
64340;BME280;63709;53.258;-8.814;2023-03-04T07:54:29;103467.56;;;9.55;100.00
64340;BME280;63709;53.258;-8.814;2023-03-04T07:56:54;103467.50;;;9.56;100.00
64340;BME280;63709;53.258;-8.814;2023-03-04T07:59:19;103460.59;;;9.49;100.00
64340;BME280;63709;53.258;-8.814;2023-03-04T08:01:45;103463.25;;;9.49;100.00
64340;BME280;63709;53.258;-8.814;2023-03-04T08:04:10;103466.81;;;9.50;100.00
64340;BME280;63709;53.258;-8.814;2023-03-04T08:06:35;103472.03;;;9.53;100.00
64340;BME280;63709;53.258;-8.814;2023-03-04T08:09:02;103466.53;;;9.59;100.00
64340;BME280;63709;53.258;-8.814;2023-03-04T08:11:28;103471.31;;;9.48;100.00
64340;BME280;63709;53.258;-8.814;2023-03-04T08:13:54;103467.63;;;9.53;100.00
64340;BME280;63709;53.258;-8.814;2023-03-04T08:16:21;103472.22;;;9.47;100.00
64340;BME280;63709;53.258;-8.814;2023-03-04T08:18:48;103470.38;;;9.49;100.00
64340;BME280;63709;53.258;-8.814;2023-03-04T08:21:14;103462.16;;;9.56;100.00
64340;BME280;63709;53.258;-8.814;2023-03-04T08:23:39;103465.81;;;9.54;100.00
64340;BME280;63709;53.258;-8.814;2023-03-04T08:26:10;103469.38;;;9.53;100.00
64340;BME280;63709;53.258;-8.814;2023-03-04T08:28:36;103476.94;;;9.37;100.00
64340;BME280;63709;53.258;-8.814;2023-03-04T08:31:02;103473.91;;;9.51;100.00
64340;BME280;63709;53.258;-8.814;2023-03-04T08:33:28;103471.47;;;9.41;100.00
64340;BME280;63709;53.258;-8.814;2023-03-04T08:35:53;103474.25;;;9.38;100.00
64340;BME280;63709;53.258;-8.814;2023-03-04T08:38:18;103484.78;;;9.41;100.00
64340;BME280;63709;53.258;-8.814;2023-03-04T08:40:44;103471.53;;;9.40;100.00
64340;BME280;63709;53.258;-8.814;2023-03-04T08:43:10;103475.91;;;9.42;100.00
64340;BME280;63709;53.258;-8.814;2023-03-04T08:45:35;103482.09;;;9.43;100.00
64340;BME280;63709;53.258;-8.814;2023-03-04T08:48:00;103477.56;;;9.47;100.00
64340;BME280;63709;53.258;-8.814;2023-03-04T08:50:26;103478.31;;;9.52;100.00
64340;BME280;63709;53.258;-8.814;2023-03-04T08:52:51;103479.97;;;9.56;100.00
64340;BME280;63709;53.258;-8.814;2023-03-04T08:55:17;103482.53;;;9.59;100.00
64340;BME280;63709;53.258;-8.814;2023-03-04T08:57:42;103487.97;;;9.56;100.00
64340;BME280;63709;53.258;-8.814;2023-03-04T09:00:07;103485.44;;;9.51;100.00
64340;BME280;63709;53.258;-8.814;2023-03-04T09:02:33;103486.38;;;9.49;100.00
64340;BME280;63709;53.258;-8.814;2023-03-04T09:04:58;103489.03;;;9.49;100.00
64340;BME280;63709;53.258;-8.814;2023-03-04T09:07:23;103489.53;;;9.64;100.00
64340;BME280;63709;53.258;-8.814;2023-03-04T09:09:48;103489.53;;;9.64;100.00
64340;BME280;63709;53.258;-8.814;2023-03-04T09:12:14;103491.56;;;9.55;100.00
64340;BME280;63709;53.258;-8.814;2023-03-04T09:14:39;103496.53;;;9.67;100.00
64340;BME280;63709;53.258;-8.814;2023-03-04T09:17:04;103489.88;;;9.51;100.00
64340;BME280;63709;53.258;-8.814;2023-03-04T09:19:30;103492.28;;;9.60;100.00
64340;BME280;63709;53.258;-8.814;2023-03-04T09:21:55;103489.31;;;9.70;100.00
64340;BME280;63709;53.258;-8.814;2023-03-04T09:24:21;103492.03;;;9.69;100.00
64340;BME280;63709;53.258;-8.814;2023-03-04T09:26:51;103487.81;;;9.62;100.00
64340;BME280;63709;53.258;-8.814;2023-03-04T09:29:16;103486.50;;;9.77;100.00
64340;BME280;63709;53.258;-8.814;2023-03-04T09:31:42;103486.56;;;9.74;100.00
64340;BME280;63709;53.258;-8.814;2023-03-04T09:34:09;103481.00;;;9.83;100.00
64340;BME280;63709;53.258;-8.814;2023-03-04T09:36:34;103473.84;;;9.83;100.00
64340;BME280;63709;53.258;-8.814;2023-03-04T09:39:00;103473.53;;;9.94;100.00
64340;BME280;63709;53.258;-8.814;2023-03-04T09:41:28;103464.28;;;10.06;100.00
64340;BME280;63709;53.258;-8.814;2023-03-04T09:43:58;103469.34;;;10.15;100.00
64340;BME280;63709;53.258;-8.814;2023-03-04T09:46:32;103457.53;;;10.24;100.00
64340;BME280;63709;53.258;-8.814;2023-03-04T09:48:58;103457.19;;;10.34;100.00
64340;BME280;63709;53.258;-8.814;2023-03-04T09:54:08;103465.09;;;10.39;100.00
64340;BME280;63709;53.258;-8.814;2023-03-04T09:56:37;103456.16;;;10.40;100.00
64340;BME280;63709;53.258;-8.814;2023-03-04T09:59:14;103449.63;;;10.49;100.00
64340;BME280;63709;53.258;-8.814;2023-03-04T10:01:44;103455.56;;;10.58;100.00
64340;BME280;63709;53.258;-8.814;2023-03-04T10:06:38;103456.78;;;10.75;100.00
64340;BME280;63709;53.258;-8.814;2023-03-04T10:09:05;103461.22;;;10.76;100.00
64340;BME280;63709;53.258;-8.814;2023-03-04T10:14:29;103456.53;;;10.82;100.00
64340;BME280;63709;53.258;-8.814;2023-03-04T10:16:59;103454.63;;;10.86;100.00
64340;BME280;63709;53.258;-8.814;2023-03-04T10:21:56;103455.19;;;10.96;100.00
64340;BME280;63709;53.258;-8.814;2023-03-04T10:24:22;103455.81;;;11.04;96.85
64340;BME280;63709;53.258;-8.814;2023-03-04T10:26:53;103454.56;;;11.14;99.28
64340;BME280;63709;53.258;-8.814;2023-03-04T10:29:21;103455.44;;;11.14;93.88
64340;BME280;63709;53.258;-8.814;2023-03-04T10:31:48;103454.22;;;11.23;94.17
64340;BME280;63709;53.258;-8.814;2023-03-04T10:34:14;103447.97;;;11.24;99.45
64340;BME280;63709;53.258;-8.814;2023-03-04T10:36:52;103453.22;;;11.01;95.03
64340;BME280;63709;53.258;-8.814;2023-03-04T10:42:01;103457.06;;;11.19;96.62
64340;BME280;63709;53.258;-8.814;2023-03-04T10:44:27;103454.50;;;11.15;96.19
64340;BME280;63709;53.258;-8.814;2023-03-04T10:46:54;103456.53;;;11.34;93.54
64340;BME280;63709;53.258;-8.814;2023-03-04T10:49:19;103461.75;;;11.37;90.13
64340;BME280;63709;53.258;-8.814;2023-03-04T10:51:46;103462.53;;;11.41;88.80
64340;BME280;63709;53.258;-8.814;2023-03-04T10:56:54;103466.94;;;11.42;93.41
64340;BME280;63709;53.258;-8.814;2023-03-04T10:59:28;103462.31;;;11.47;84.00
64340;BME280;63709;53.258;-8.814;2023-03-04T11:01:58;103460.81;;;11.38;88.89
64340;BME280;63709;53.258;-8.814;2023-03-04T11:04:24;103466.41;;;11.32;82.52
64340;BME280;63709;53.258;-8.814;2023-03-04T11:06:50;103457.78;;;11.24;80.01
64340;BME280;63709;53.258;-8.814;2023-03-04T11:09:23;103457.06;;;11.19;86.23
64340;BME280;63709;53.258;-8.814;2023-03-04T11:11:49;103453.28;;;10.99;80.84
64340;BME280;63709;53.258;-8.814;2023-03-04T11:14:26;103454.16;;;11.00;85.47
64340;BME280;63709;53.258;-8.814;2023-03-04T11:17:01;103454.25;;;10.97;80.37
64340;BME280;63709;53.258;-8.814;2023-03-04T11:19:28;103452.25;;;11.03;84.80
64340;BME280;63709;53.258;-8.814;2023-03-04T11:21:56;103441.94;;;10.93;87.64
64340;BME280;63709;53.258;-8.814;2023-03-04T11:24:23;103447.00;;;11.00;90.93
64340;BME280;63709;53.258;-8.814;2023-03-04T11:27:04;103443.09;;;11.10;85.93
64340;BME280;63709;53.258;-8.814;2023-03-04T11:29:32;103442.66;;;10.98;84.44
64340;BME280;63709;53.258;-8.814;2023-03-04T11:32:02;103439.38;;;11.14;90.75
64340;BME280;63709;53.258;-8.814;2023-03-04T11:37:09;103435.78;;;11.15;85.10
64340;BME280;63709;53.258;-8.814;2023-03-04T11:39:46;103432.69;;;11.28;87.19
64340;BME280;63709;53.258;-8.814;2023-03-04T11:44:43;103428.97;;;11.32;87.63
64340;BME280;63709;53.258;-8.814;2023-03-04T12:30:02;103389.16;;;11.48;76.42
64340;BME280;63709;53.258;-8.814;2023-03-04T12:35:17;103381.44;;;11.40;75.28
64340;BME280;63709;53.258;-8.814;2023-03-04T12:40:25;103370.44;;;11.48;80.46
64340;BME280;63709;53.258;-8.814;2023-03-04T12:42:57;103374.34;;;11.39;74.07
64340;BME280;63709;53.258;-8.814;2023-03-04T12:45:36;103368.81;;;11.44;74.53
64340;BME280;63709;53.258;-8.814;2023-03-04T12:53:23;103370.44;;;11.24;77.94
64340;BME280;63709;53.258;-8.814;2023-03-04T12:55:49;103361.53;;;11.24;78.92
64340;BME280;63709;53.258;-8.814;2023-03-04T12:58:21;103349.44;;;11.37;73.29
64340;BME280;63709;53.258;-8.814;2023-03-04T13:03:35;103345.72;;;11.41;72.81
64340;BME280;63709;53.258;-8.814;2023-03-04T13:06:05;103351.53;;;11.29;72.60
64340;BME280;63709;53.258;-8.814;2023-03-04T13:21:50;103356.69;;;11.10;77.28
64340;BME280;63709;53.258;-8.814;2023-03-04T13:27:42;103345.06;;;11.11;78.23
64340;BME280;63709;53.258;-8.814;2023-03-04T13:29:47;103338.47;;;11.21;77.88
64340;BME280;63709;53.258;-8.814;2023-03-04T13:32:13;103338.34;;;11.24;80.45
64340;BME280;63709;53.258;-8.814;2023-03-04T13:34:58;103331.22;;;11.23;77.05
64340;BME280;63709;53.258;-8.814;2023-03-04T13:37:33;103333.00;;;11.24;81.63
64340;BME280;63709;53.258;-8.814;2023-03-04T13:42:41;103328.69;;;11.20;74.28
64340;BME280;63709;53.258;-8.814;2023-03-04T13:48:03;103334.53;;;11.06;72.77
64340;BME280;63709;53.258;-8.814;2023-03-04T13:50:35;103325.41;;;11.12;71.52
64340;BME280;63709;53.258;-8.814;2023-03-04T13:53:21;103319.09;;;11.14;71.57
64340;BME280;63709;53.258;-8.814;2023-03-04T13:58:27;103313.56;;;11.19;73.09
64340;BME280;63709;53.258;-8.814;2023-03-04T14:00:53;103317.47;;;11.34;71.14
64340;BME280;63709;53.258;-8.814;2023-03-04T14:03:20;103313.88;;;11.35;68.83
64340;BME280;63709;53.258;-8.814;2023-03-04T14:05:45;103314.19;;;11.27;70.73
64340;BME280;63709;53.258;-8.814;2023-03-04T14:08:18;103307.31;;;11.20;75.45
64340;BME280;63709;53.258;-8.814;2023-03-04T14:10:43;103300.09;;;11.22;74.28
64340;BME280;63709;53.258;-8.814;2023-03-04T14:13:08;103301.31;;;11.13;74.84
64340;BME280;63709;53.258;-8.814;2023-03-04T14:15:35;103289.75;;;11.13;74.00